createdAt,value
2022-12-01T00:00:32.172Z,27.98
2022-12-01T00:03:37.122Z,28.35
2022-12-01T00:06:42.320Z,27.05
2022-12-01T00:10:04.320Z,27.73
2022-12-01T00:13:07.482Z,26.52
2022-12-01T00:16:13.273Z,25.05
2022-12-01T00:19:16.570Z,16.30
2022-12-01T00:22:20.041Z,15.73
2022-12-01T00:25:23.050Z,12.80
2022-12-01T00:28:26.695Z,23.92
2022-12-01T00:31:29.788Z,17.80
2022-12-01T00:34:34.190Z,24.55
2022-12-01T00:37:39.316Z,23.90
2022-12-01T00:40:43.160Z,18.95
2022-12-01T00:43:46.719Z,18.65
2022-12-01T00:46:50.536Z,21.67
2022-12-01T00:49:54.049Z,20.33
2022-12-01T00:52:57.499Z,21.40
2022-12-01T00:56:01.177Z,24.48
2022-12-01T00:59:04.484Z,15.02
2022-12-01T01:02:08.447Z,16.23
2022-12-01T01:05:12.285Z,13.73
2022-12-01T01:08:15.647Z,16.30
2022-12-01T01:11:21.132Z,12.90
2022-12-01T01:14:24.841Z,12.10
2022-12-01T01:17:28.556Z,12.68
2022-12-01T01:20:32.154Z,9.63
2022-12-01T01:23:36.960Z,7.00
2022-12-01T01:26:39.896Z,18.02
2022-12-01T01:29:44.027Z,17.05
2022-12-01T01:32:47.378Z,18.77
2022-12-01T01:35:51.377Z,25.25
2022-12-01T01:38:55.409Z,21.52
2022-12-01T01:41:58.812Z,17.52
2022-12-01T01:45:02.130Z,15.27
2022-12-01T01:48:05.951Z,13.25
2022-12-01T01:51:09.685Z,11.57
2022-12-01T01:57:29.781Z,9.25
2022-12-01T02:00:33.606Z,8.57
2022-12-01T02:03:39.399Z,7.43
2022-12-01T02:09:48.462Z,5.78
2022-12-01T02:13:10.539Z,4.30
2022-12-01T02:16:43.138Z,4.45
2022-12-01T02:20:14.036Z,4.43
2022-12-01T02:23:41.507Z,6.53
2022-12-01T02:26:50.496Z,6.65
2022-12-01T02:30:01.490Z,5.43
2022-12-01T02:33:13.549Z,7.78
2022-12-01T02:36:38.361Z,5.85
2022-12-01T02:39:51.930Z,5.18
2022-12-01T02:43:21.186Z,7.85
2022-12-01T02:46:30.492Z,7.18
2022-12-01T02:49:37.503Z,9.85
2022-12-01T02:52:41.636Z,7.12
2022-12-01T02:55:53.031Z,8.50
2022-12-01T02:58:56.209Z,10.02
2022-12-01T03:02:08.991Z,9.60
2022-12-01T03:05:24.213Z,11.73
2022-12-01T03:08:35.716Z,10.80
2022-12-01T03:11:57.262Z,9.77
2022-12-01T03:15:51.456Z,12.90
2022-12-01T03:19:00.912Z,9.18
2022-12-01T03:22:27.354Z,7.50
2022-12-01T03:25:32.493Z,7.55
2022-12-01T03:28:40.632Z,8.75
2022-12-01T03:31:53.281Z,12.45
2022-12-01T03:35:01.704Z,7.82
2022-12-01T03:38:25.347Z,8.23
2022-12-01T03:41:51.835Z,11.43
2022-12-01T03:44:57.837Z,10.20
2022-12-01T03:48:01.360Z,9.43
2022-12-01T03:51:10.375Z,10.50
2022-12-01T03:54:43.286Z,10.60
2022-12-01T03:57:52.396Z,7.70
2022-12-01T04:00:57.746Z,11.20
2022-12-01T04:07:14.969Z,12.57
2022-12-01T04:10:18.529Z,12.13
2022-12-01T04:13:25.656Z,9.98
2022-12-01T04:16:28.628Z,12.32
2022-12-01T04:19:32.183Z,11.02
2022-12-01T04:22:35.269Z,8.18
2022-12-01T04:25:38.262Z,12.77
2022-12-01T04:28:41.274Z,10.15
2022-12-01T04:31:45.309Z,11.05
2022-12-01T04:34:48.537Z,13.57
2022-12-01T04:37:51.566Z,13.60
2022-12-01T04:40:55.447Z,9.75
2022-12-01T04:43:58.531Z,18.02
2022-12-01T04:47:02.124Z,17.25
2022-12-01T04:50:06.114Z,14.23
2022-12-01T04:53:09.907Z,15.70
2022-12-01T04:56:12.961Z,13.20
2022-12-01T04:59:17.390Z,15.73
2022-12-01T05:02:20.578Z,15.20
2022-12-01T05:05:24.281Z,12.10
2022-12-01T05:08:27.857Z,14.48
2022-12-01T05:11:32.592Z,15.55
2022-12-01T05:14:37.379Z,15.40
2022-12-01T05:17:42.413Z,19.48
2022-12-01T05:20:57.485Z,11.87
2022-12-01T05:24:00.874Z,16.08
2022-12-01T05:27:04.922Z,10.23
2022-12-01T05:30:09.076Z,14.57
2022-12-01T05:33:12.511Z,14.95
2022-12-01T05:36:16.880Z,15.02
2022-12-01T05:39:19.901Z,16.12
2022-12-01T05:42:24.268Z,13.57
2022-12-01T05:45:27.722Z,14.57
2022-12-01T05:48:31.353Z,15.95
2022-12-01T05:51:34.365Z,15.40
2022-12-01T05:54:40.902Z,19.62
2022-12-01T05:57:44.587Z,41.90
2022-12-01T06:00:48.208Z,24.92
2022-12-01T06:03:53.203Z,21.52
2022-12-01T06:06:56.389Z,20.27
2022-12-01T06:10:00.399Z,18.92
2022-12-01T06:13:03.336Z,18.55
2022-12-01T06:16:07.201Z,19.05
2022-12-01T06:19:10.576Z,15.88
2022-12-01T06:22:14.353Z,15.55
2022-12-01T06:25:17.781Z,17.98
2022-12-01T06:28:22.451Z,24.02
2022-12-01T06:31:27.152Z,26.23
2022-12-01T06:34:33.599Z,22.25
2022-12-01T06:37:38.098Z,18.90
2022-12-01T06:40:43.773Z,21.73
2022-12-01T06:43:46.692Z,23.92
2022-12-01T06:46:55.389Z,25.65
2022-12-01T06:49:58.513Z,27.10
2022-12-01T06:53:02.446Z,35.28
2022-12-01T06:56:06.474Z,31.58
2022-12-01T06:59:10.233Z,23.50
2022-12-01T07:02:13.669Z,25.40
2022-12-01T07:05:17.185Z,23.33
2022-12-01T07:08:20.287Z,28.23
2022-12-01T07:11:23.546Z,25.90
2022-12-01T07:14:27.454Z,20.67
2022-12-01T07:17:30.780Z,22.10
2022-12-01T07:20:34.204Z,21.05
2022-12-01T07:23:37.552Z,15.05
2022-12-01T07:26:41.349Z,18.92
2022-12-01T07:29:45.166Z,18.40
2022-12-01T07:32:48.878Z,25.02
2022-12-01T07:35:54.094Z,22.80
2022-12-01T07:38:57.189Z,22.37
2022-12-01T07:42:01.576Z,24.07
2022-12-01T07:45:05.096Z,24.60
2022-12-01T07:48:08.353Z,34.05
2022-12-01T07:51:16.936Z,31.45
2022-12-01T07:54:21.447Z,32.55
2022-12-01T07:57:24.990Z,33.72
2022-12-01T08:00:29.035Z,31.33
2022-12-01T08:03:32.662Z,33.88
2022-12-01T08:06:35.714Z,32.00
2022-12-01T08:09:38.982Z,29.70
2022-12-01T08:12:42.176Z,28.58
2022-12-01T08:15:45.280Z,31.15
2022-12-01T08:18:48.535Z,25.65
2022-12-01T08:21:52.259Z,28.48
2022-12-01T08:24:55.337Z,32.78
2022-12-01T08:28:00.786Z,24.58
2022-12-01T08:31:12.431Z,27.50
2022-12-01T08:34:15.649Z,25.50
2022-12-01T08:37:18.686Z,28.42
2022-12-01T08:40:22.510Z,26.25
2022-12-01T08:43:55.998Z,28.05
2022-12-01T08:46:50.197Z,28.33
2022-12-01T08:49:53.506Z,21.95
2022-12-01T08:52:56.707Z,27.02
2022-12-01T08:56:05.552Z,28.30
2022-12-01T08:59:09.350Z,32.03
2022-12-01T09:02:16.621Z,29.95
2022-12-01T09:05:20.249Z,26.12
2022-12-01T09:08:32.266Z,29.30
2022-12-01T09:11:36.124Z,29.23
2022-12-01T09:14:41.007Z,34.42
2022-12-01T09:17:44.552Z,29.20
2022-12-01T09:20:48.066Z,36.08
2022-12-01T09:23:52.086Z,31.35
2022-12-01T09:26:56.645Z,31.45
2022-12-01T09:30:00.102Z,32.33
2022-12-01T09:33:03.137Z,31.45
2022-12-01T09:36:08.713Z,34.35
2022-12-01T09:39:14.632Z,33.65
2022-12-01T09:42:22.446Z,28.65
2022-12-01T09:45:28.293Z,25.88
2022-12-01T09:48:44.161Z,25.80
2022-12-01T09:51:47.116Z,24.25
2022-12-01T09:54:50.897Z,30.75
2022-12-01T09:57:56.558Z,26.48
2022-12-01T10:01:00.793Z,31.42
2022-12-01T10:04:25.482Z,50.15
2022-12-01T10:07:40.618Z,37.90
2022-12-01T10:10:49.432Z,34.90
2022-12-01T10:13:52.580Z,35.65
2022-12-01T10:17:11.072Z,31.90
2022-12-01T10:20:20.059Z,26.48
2022-12-01T10:24:03.417Z,28.95
2022-12-01T10:27:19.407Z,24.20
2022-12-01T10:30:24.264Z,21.23
2022-12-01T10:33:34.534Z,21.73
2022-12-01T10:36:37.842Z,22.00
2022-12-01T10:39:43.956Z,15.32
2022-12-01T10:42:51.085Z,21.87
2022-12-01T10:45:54.717Z,26.23
2022-12-01T10:48:59.707Z,27.00
2022-12-01T10:52:02.796Z,22.55
2022-12-01T10:55:25.019Z,22.20
2022-12-01T10:58:29.229Z,21.33
2022-12-01T11:01:36.115Z,19.33
2022-12-01T11:04:47.255Z,18.92
2022-12-01T11:07:50.758Z,24.45
2022-12-01T11:10:55.257Z,18.67
2022-12-01T11:14:01.499Z,17.65
2022-12-01T11:17:23.040Z,20.30
2022-12-01T11:20:38.610Z,16.40
2022-12-01T11:23:47.096Z,17.40
2022-12-01T11:26:51.053Z,20.70
2022-12-01T11:30:00.749Z,20.75
2022-12-01T11:33:05.935Z,18.67
2022-12-01T11:36:16.050Z,18.73
2022-12-01T11:39:29.015Z,22.10
2022-12-01T11:42:34.495Z,15.40
2022-12-01T11:45:40.315Z,17.15
2022-12-01T11:48:58.131Z,16.62
2022-12-01T11:52:17.480Z,15.85
2022-12-01T11:55:25.925Z,15.23
2022-12-01T11:58:29.257Z,16.23
2022-12-01T12:01:35.404Z,15.85
2022-12-01T12:04:57.168Z,15.35
2022-12-01T12:08:09.787Z,19.00
2022-12-01T12:11:22.135Z,15.57
2022-12-01T12:14:37.255Z,14.68
2022-12-01T12:18:10.186Z,19.05
2022-12-01T12:21:34.048Z,16.65
2022-12-01T12:24:46.579Z,16.70
2022-12-01T12:28:08.408Z,15.43
2022-12-01T12:31:22.277Z,17.35
2022-12-01T12:34:28.417Z,19.23
2022-12-01T12:37:41.421Z,19.40
2022-12-01T12:40:50.271Z,17.95
2022-12-01T12:44:24.223Z,18.95
2022-12-01T12:47:49.923Z,18.27
2022-12-01T12:50:59.909Z,20.65
2022-12-01T12:54:12.552Z,17.77
2022-12-01T12:57:30.324Z,15.82
2022-12-01T13:00:34.172Z,17.92
2022-12-01T13:03:53.433Z,13.93
2022-12-01T13:07:14.279Z,19.27
2022-12-01T13:10:24.120Z,16.75
2022-12-01T13:14:10.568Z,17.40
2022-12-01T13:17:20.018Z,14.13
2022-12-01T13:20:27.773Z,19.62
2022-12-01T13:23:31.104Z,15.20
2022-12-01T13:26:36.631Z,17.55
2022-12-01T13:29:48.404Z,18.05
2022-12-01T13:32:59.963Z,18.33
2022-12-01T13:36:44.734Z,18.60
2022-12-01T13:39:36.503Z,19.95
2022-12-01T13:42:40.666Z,16.23
2022-12-01T13:45:43.886Z,15.95
2022-12-01T13:48:47.018Z,19.10
2022-12-01T13:52:19.369Z,16.50
2022-12-01T13:55:29.008Z,17.70
2022-12-01T13:58:34.949Z,19.17
2022-12-01T14:01:46.561Z,15.13
2022-12-01T14:04:50.274Z,22.35
2022-12-01T14:07:54.535Z,16.70
2022-12-01T14:11:04.473Z,18.95
2022-12-01T14:14:13.594Z,22.05
2022-12-01T14:17:35.449Z,23.33
2022-12-01T14:20:46.139Z,21.87
2022-12-01T14:24:01.474Z,20.98
2022-12-01T14:27:05.934Z,26.87
2022-12-01T14:30:41.280Z,21.73
2022-12-01T14:33:49.491Z,23.23
2022-12-01T14:36:56.147Z,19.40
2022-12-01T14:40:04.438Z,21.95
2022-12-01T14:43:31.085Z,24.87
2022-12-01T14:46:52.124Z,25.08
2022-12-01T14:49:58.618Z,23.92
2022-12-01T14:53:26.266Z,25.23
2022-12-01T14:59:34.406Z,25.10
2022-12-01T15:02:41.804Z,23.40
2022-12-01T15:05:45.151Z,23.98
2022-12-01T15:12:33.908Z,33.47
2022-12-01T15:15:37.864Z,44.88
2022-12-01T15:18:40.946Z,34.97
2022-12-01T15:21:44.242Z,31.75
2022-12-01T15:24:47.548Z,31.02
2022-12-01T15:28:13.772Z,32.42
2022-12-01T15:31:17.074Z,27.02
2022-12-01T15:34:25.090Z,33.08
2022-12-01T15:37:30.760Z,30.30
2022-12-01T15:44:05.628Z,41.47
2022-12-01T15:47:31.418Z,37.80
2022-12-01T15:50:46.254Z,29.60
2022-12-01T15:53:54.183Z,29.10
2022-12-01T15:56:59.267Z,27.05
2022-12-01T16:03:15.293Z,26.58
2022-12-01T16:06:23.304Z,29.45
2022-12-01T16:09:36.701Z,37.35
2022-12-01T16:12:40.609Z,41.40
2022-12-01T16:15:44.351Z,29.08
2022-12-01T16:19:08.139Z,43.70
2022-12-01T16:22:10.932Z,34.58
2022-12-01T16:25:39.362Z,39.17
2022-12-01T16:28:42.441Z,57.22
2022-12-01T16:32:12.728Z,55.80
2022-12-01T16:35:30.519Z,58.58
2022-12-01T16:38:34.662Z,52.50
2022-12-01T16:41:45.084Z,36.85
2022-12-01T16:44:50.022Z,36.03
2022-12-01T16:47:53.489Z,34.30
2022-12-01T16:50:57.389Z,74.00
2022-12-01T16:54:00.675Z,45.75
2022-12-01T16:57:05.976Z,48.60
2022-12-01T17:00:09.653Z,50.47
2022-12-01T17:03:17.214Z,122.07
2022-12-01T17:06:20.761Z,75.43
2022-12-01T17:09:24.006Z,86.60
2022-12-01T17:12:27.065Z,64.60
2022-12-01T17:15:30.493Z,61.37
2022-12-01T17:18:36.079Z,88.10
2022-12-01T17:21:40.737Z,116.82
2022-12-01T17:24:43.685Z,88.93
2022-12-01T17:27:47.640Z,59.45
2022-12-01T17:30:53.650Z,42.17
2022-12-01T17:33:58.331Z,38.00
2022-12-01T17:37:02.646Z,41.78
2022-12-01T17:40:07.492Z,41.10
2022-12-01T17:43:10.793Z,51.65
2022-12-01T17:46:16.018Z,46.30
2022-12-01T17:49:19.725Z,40.53
2022-12-01T17:52:28.042Z,40.47
2022-12-01T17:55:31.464Z,33.60
2022-12-01T17:58:35.368Z,31.10
2022-12-01T18:01:38.853Z,67.53
2022-12-01T18:04:42.709Z,76.50
2022-12-01T18:07:45.961Z,53.47
2022-12-01T18:10:49.522Z,45.35
2022-12-01T18:13:53.566Z,37.28
2022-12-01T18:16:57.072Z,45.38
2022-12-01T18:20:00.611Z,57.30
2022-12-01T18:23:04.607Z,64.22
2022-12-01T18:26:16.191Z,49.78
2022-12-01T18:29:29.614Z,43.95
2022-12-01T18:32:33.082Z,52.67
2022-12-01T18:35:41.983Z,65.18
2022-12-01T18:38:47.758Z,106.37
2022-12-01T18:41:52.308Z,203.12
2022-12-01T18:44:57.005Z,138.02
2022-12-01T18:48:03.544Z,59.83
2022-12-01T18:51:08.439Z,51.88
2022-12-01T18:54:14.539Z,51.45
2022-12-01T18:57:19.677Z,57.10
2022-12-01T19:00:23.725Z,54.85
2022-12-01T19:03:32.385Z,43.80
2022-12-01T19:06:38.299Z,34.78
2022-12-01T19:09:42.247Z,32.53
2022-12-01T19:12:46.968Z,30.95
2022-12-01T19:15:50.626Z,31.85
2022-12-01T19:18:55.782Z,29.02
2022-12-01T19:21:59.547Z,32.22
2022-12-01T19:25:04.782Z,30.77
2022-12-01T19:28:10.838Z,34.47
2022-12-01T19:31:17.822Z,41.85
2022-12-01T19:34:21.548Z,40.65
2022-12-01T19:37:25.891Z,37.67
2022-12-01T19:40:29.314Z,41.60
2022-12-01T19:43:35.250Z,32.23
2022-12-01T19:46:39.153Z,43.70
2022-12-01T19:49:52.308Z,87.00
2022-12-01T19:52:55.890Z,81.55
2022-12-01T19:56:03.662Z,66.68
2022-12-01T19:59:08.578Z,41.42
2022-12-01T20:02:13.975Z,38.47
2022-12-01T20:05:17.710Z,42.62
2022-12-01T20:08:21.407Z,37.17
2022-12-01T20:11:26.682Z,33.67
2022-12-01T20:14:30.628Z,31.98
2022-12-01T20:17:37.225Z,32.17
2022-12-01T20:20:40.673Z,39.10
2022-12-01T20:23:48.966Z,39.42
2022-12-01T20:26:57.011Z,35.30
2022-12-01T20:30:00.390Z,40.05
2022-12-01T20:33:03.910Z,36.22
2022-12-01T20:36:08.553Z,29.70
2022-12-01T20:39:12.949Z,35.58
2022-12-01T20:42:19.311Z,39.03
2022-12-01T20:45:24.064Z,34.47
2022-12-01T20:48:28.250Z,35.53
2022-12-01T20:51:35.205Z,31.77
2022-12-01T20:54:39.409Z,37.90
2022-12-01T20:57:44.494Z,36.53
2022-12-01T21:00:49.305Z,37.47
2022-12-01T21:03:52.808Z,34.33
2022-12-01T21:06:59.160Z,31.40
2022-12-01T21:10:03.216Z,28.10
2022-12-01T21:16:48.324Z,33.00
2022-12-01T21:20:05.524Z,32.75
2022-12-01T21:23:13.666Z,31.65
2022-12-01T21:26:17.451Z,32.28
2022-12-01T21:29:23.195Z,32.78
2022-12-01T21:32:31.895Z,31.92
2022-12-01T21:35:35.034Z,32.28
2022-12-01T21:38:38.424Z,44.55
2022-12-01T21:41:41.613Z,50.22
2022-12-01T21:44:45.694Z,57.72
2022-12-01T21:47:48.704Z,52.65
2022-12-01T21:51:05.243Z,48.28
2022-12-01T21:54:13.883Z,41.17
2022-12-01T21:57:46.256Z,39.58
2022-12-01T22:00:49.394Z,32.67
2022-12-01T22:03:54.902Z,39.13
2022-12-01T22:07:01.447Z,42.75
2022-12-01T22:10:43.299Z,34.10
2022-12-01T22:14:10.003Z,30.75
2022-12-01T22:17:21.126Z,29.75
2022-12-01T22:20:24.327Z,30.17
2022-12-01T22:23:34.212Z,33.80
2022-12-01T22:26:40.395Z,32.17
2022-12-01T22:29:45.962Z,33.65
2022-12-01T22:33:00.269Z,30.80
2022-12-01T22:36:23.065Z,33.22
2022-12-01T22:39:34.414Z,31.40
2022-12-01T22:42:38.115Z,34.78
2022-12-01T22:45:43.684Z,33.65
2022-12-01T22:48:50.705Z,38.50
2022-12-01T22:52:03.790Z,30.17
2022-12-01T22:55:15.795Z,32.67
2022-12-01T22:58:28.603Z,35.28
2022-12-01T23:01:34.135Z,35.17
2022-12-01T23:04:42.475Z,32.03
2022-12-01T23:07:46.282Z,31.08
2022-12-01T23:10:50.093Z,29.12
2022-12-01T23:13:53.944Z,29.87
2022-12-01T23:17:08.529Z,31.52
2022-12-01T23:20:15.434Z,32.33
2022-12-01T23:23:27.373Z,32.95
2022-12-01T23:26:31.266Z,33.85
2022-12-01T23:29:35.098Z,31.10
2022-12-01T23:32:38.899Z,36.65
2022-12-01T23:35:54.980Z,38.42
2022-12-01T23:39:01.883Z,34.60
2022-12-01T23:42:06.586Z,27.90
2022-12-01T23:45:22.868Z,29.12
2022-12-01T23:48:33.319Z,27.95
2022-12-01T23:51:57.622Z,28.27
2022-12-01T23:55:08.017Z,28.60
2022-12-01T23:58:13.830Z,31.00
